sensor_id;sensor_type;location;lat;lon;timestamp;pressure;altitude;pressure_sealevel;temperature;humidity
69855;BME280;57146;48.140;16.304;2023-07-08T00:01:13;99876.81;;;17.61;59.93
69855;BME280;57146;48.140;16.304;2023-07-08T00:03:41;99879.13;;;17.63;59.82
69855;BME280;57146;48.140;16.304;2023-07-08T00:06:13;99889.22;;;17.57;60.04
69855;BME280;57146;48.140;16.304;2023-07-08T00:08:42;99884.34;;;17.59;59.39
69855;BME280;57146;48.140;16.304;2023-07-08T00:11:11;99892.44;;;17.51;60.50
69855;BME280;57146;48.140;16.304;2023-07-08T00:13:38;99887.72;;;17.35;60.87
69855;BME280;57146;48.140;16.304;2023-07-08T00:16:11;99890.16;;;17.28;61.07
69855;BME280;57146;48.140;16.304;2023-07-08T00:18:38;99892.25;;;17.22;61.41
69855;BME280;57146;48.140;16.304;2023-07-08T00:21:10;99890.56;;;17.18;61.22
69855;BME280;57146;48.140;16.304;2023-07-08T00:23:37;99892.78;;;17.16;61.89
69855;BME280;57146;48.140;16.304;2023-07-08T00:26:15;99893.31;;;17.09;61.49
69855;BME280;57146;48.140;16.304;2023-07-08T00:28:44;99890.78;;;17.13;61.94
69855;BME280;57146;48.140;16.304;2023-07-08T00:31:11;99889.88;;;17.09;62.32
69855;BME280;57146;48.140;16.304;2023-07-08T00:33:38;99893.19;;;17.06;62.72
69855;BME280;57146;48.140;16.304;2023-07-08T00:36:13;99893.84;;;17.03;63.10
69855;BME280;57146;48.140;16.304;2023-07-08T00:38:41;99895.16;;;16.96;63.79
69855;BME280;57146;48.140;16.304;2023-07-08T00:41:12;99888.63;;;16.94;63.53
69855;BME280;57146;48.140;16.304;2023-07-08T00:43:46;99888.94;;;16.92;64.09
69855;BME280;57146;48.140;16.304;2023-07-08T00:51:35;99875.06;;;16.87;64.09
69855;BME280;57146;48.140;16.304;2023-07-08T00:54:03;99872.28;;;16.83;63.83
69855;BME280;57146;48.140;16.304;2023-07-08T00:56:33;99877.38;;;16.67;65.41
69855;BME280;57146;48.140;16.304;2023-07-08T00:59:09;99885.56;;;16.62;65.66
69855;BME280;57146;48.140;16.304;2023-07-08T01:01:40;99880.03;;;16.67;65.82
69855;BME280;57146;48.140;16.304;2023-07-08T01:04:18;99880.44;;;16.57;66.07
69855;BME280;57146;48.140;16.304;2023-07-08T01:06:49;99877.59;;;16.62;65.94
69855;BME280;57146;48.140;16.304;2023-07-08T01:09:18;99887.63;;;16.57;66.13
69855;BME280;57146;48.140;16.304;2023-07-08T01:11:45;99885.44;;;16.59;66.19
69855;BME280;57146;48.140;16.304;2023-07-08T01:14:16;99878.38;;;16.63;64.71
69855;BME280;57146;48.140;16.304;2023-07-08T01:16:45;99880.25;;;16.62;62.90
69855;BME280;57146;48.140;16.304;2023-07-08T01:19:18;99874.28;;;16.65;62.41
69855;BME280;57146;48.140;16.304;2023-07-08T01:22:07;99879.88;;;16.72;62.33
69855;BME280;57146;48.140;16.304;2023-07-08T01:24:36;99870.66;;;16.70;61.01
69855;BME280;57146;48.140;16.304;2023-07-08T01:27:06;99863.09;;;16.72;61.19
69855;BME280;57146;48.140;16.304;2023-07-08T01:29:34;99863.31;;;16.67;62.23
69855;BME280;57146;48.140;16.304;2023-07-08T01:32:02;99860.00;;;16.70;62.50
69855;BME280;57146;48.140;16.304;2023-07-08T01:34:33;99854.44;;;16.63;62.72
69855;BME280;57146;48.140;16.304;2023-07-08T01:37:02;99857.09;;;16.42;63.19
69855;BME280;57146;48.140;16.304;2023-07-08T01:39:31;99862.53;;;16.24;63.36
69855;BME280;57146;48.140;16.304;2023-07-08T01:41:59;99857.22;;;16.24;64.00
69855;BME280;57146;48.140;16.304;2023-07-08T01:44:33;99858.84;;;16.17;63.89
69855;BME280;57146;48.140;16.304;2023-07-08T01:47:23;99853.25;;;16.10;64.87
69855;BME280;57146;48.140;16.304;2023-07-08T01:49:50;99848.09;;;16.13;64.35
69855;BME280;57146;48.140;16.304;2023-07-08T01:52:18;99846.53;;;16.12;64.11
69855;BME280;57146;48.140;16.304;2023-07-08T01:54:45;99851.88;;;16.03;64.71
69855;BME280;57146;48.140;16.304;2023-07-08T01:57:12;99845.03;;;16.02;65.06
69855;BME280;57146;48.140;16.304;2023-07-08T01:59:39;99850.41;;;15.94;65.21
69855;BME280;57146;48.140;16.304;2023-07-08T02:02:06;99841.47;;;15.98;64.32
69855;BME280;57146;48.140;16.304;2023-07-08T02:04:33;99846.53;;;15.83;65.89
69855;BME280;57146;48.140;16.304;2023-07-08T02:07:00;99839.81;;;15.85;65.00
69855;BME280;57146;48.140;16.304;2023-07-08T02:09:27;99851.69;;;15.79;65.93
69855;BME280;57146;48.140;16.304;2023-07-08T02:11:54;99845.94;;;15.77;65.66
69855;BME280;57146;48.140;16.304;2023-07-08T02:14:21;99845.47;;;15.75;65.45
69855;BME280;57146;48.140;16.304;2023-07-08T02:16:48;99835.81;;;15.70;66.06
69855;BME280;57146;48.140;16.304;2023-07-08T02:19:15;99839.53;;;15.78;65.29
69855;BME280;57146;48.140;16.304;2023-07-08T02:21:42;99834.69;;;15.80;64.48
69855;BME280;57146;48.140;16.304;2023-07-08T02:24:09;99834.50;;;15.85;64.10
69855;BME280;57146;48.140;16.304;2023-07-08T02:26:36;99831.41;;;15.83;64.71
69855;BME280;57146;48.140;16.304;2023-07-08T02:29:03;99832.69;;;15.68;65.94
69855;BME280;57146;48.140;16.304;2023-07-08T02:31:30;99824.47;;;15.52;65.91
69855;BME280;57146;48.140;16.304;2023-07-08T02:33:57;99826.50;;;15.55;66.22
69855;BME280;57146;48.140;16.304;2023-07-08T02:36:24;99821.53;;;15.45;67.35
69855;BME280;57146;48.140;16.304;2023-07-08T02:38:51;99821.84;;;15.44;67.22
69855;BME280;57146;48.140;16.304;2023-07-08T02:41:18;99833.88;;;15.41;67.40
69855;BME280;57146;48.140;16.304;2023-07-08T02:43:45;99829.22;;;15.38;67.55
69855;BME280;57146;48.140;16.304;2023-07-08T02:46:12;99819.38;;;15.39;67.13
69855;BME280;57146;48.140;16.304;2023-07-08T02:48:39;99825.00;;;15.37;67.08
69855;BME280;57146;48.140;16.304;2023-07-08T02:51:06;99824.22;;;15.37;67.80
69855;BME280;57146;48.140;16.304;2023-07-08T02:53:34;99831.88;;;15.29;67.91
69855;BME280;57146;48.140;16.304;2023-07-08T02:56:01;99831.09;;;15.29;67.76
69855;BME280;57146;48.140;16.304;2023-07-08T02:58:28;99845.00;;;15.26;68.50
69855;BME280;57146;48.140;16.304;2023-07-08T03:00:57;99838.19;;;15.16;69.32
69855;BME280;57146;48.140;16.304;2023-07-08T03:03:24;99843.34;;;15.13;69.93
69855;BME280;57146;48.140;16.304;2023-07-08T03:06:00;99831.94;;;15.12;69.57
69855;BME280;57146;48.140;16.304;2023-07-08T03:08:27;99839.09;;;15.12;69.37
69855;BME280;57146;48.140;16.304;2023-07-08T03:10:59;99835.38;;;15.04;70.25
69855;BME280;57146;48.140;16.304;2023-07-08T03:13:27;99850.38;;;15.00;70.41
69855;BME280;57146;48.140;16.304;2023-07-08T03:15:57;99844.13;;;14.96;70.75
69855;BME280;57146;48.140;16.304;2023-07-08T03:18:24;99845.38;;;14.98;70.15
69855;BME280;57146;48.140;16.304;2023-07-08T03:20:54;99845.69;;;15.05;69.40
69855;BME280;57146;48.140;16.304;2023-07-08T03:23:22;99846.44;;;15.15;68.61
69855;BME280;57146;48.140;16.304;2023-07-08T03:25:51;99843.44;;;15.25;68.50
69855;BME280;57146;48.140;16.304;2023-07-08T03:28:20;99855.16;;;15.15;69.04
69855;BME280;57146;48.140;16.304;2023-07-08T03:30:51;99855.34;;;15.10;69.16
69855;BME280;57146;48.140;16.304;2023-07-08T03:33:20;99864.06;;;15.11;69.12
69855;BME280;57146;48.140;16.304;2023-07-08T03:35:47;99864.09;;;15.02;69.66
69855;BME280;57146;48.140;16.304;2023-07-08T03:38:15;99861.88;;;15.04;69.28
69855;BME280;57146;48.140;16.304;2023-07-08T03:40:42;99872.06;;;15.02;69.84
69855;BME280;57146;48.140;16.304;2023-07-08T03:43:09;99867.97;;;15.04;69.63
69855;BME280;57146;48.140;16.304;2023-07-08T03:45:37;99872.06;;;15.02;69.80
69855;BME280;57146;48.140;16.304;2023-07-08T03:48:05;99871.72;;;15.03;69.97
69855;BME280;57146;48.140;16.304;2023-07-08T03:50:32;99868.13;;;15.08;69.98
69855;BME280;57146;48.140;16.304;2023-07-08T03:52:59;99879.81;;;15.07;70.40
69855;BME280;57146;48.140;16.304;2023-07-08T03:55:29;99878.88;;;15.12;69.69
69855;BME280;57146;48.140;16.304;2023-07-08T03:57:58;99880.91;;;15.15;70.18
69855;BME280;57146;48.140;16.304;2023-07-08T04:00:27;99882.31;;;15.21;70.46
69855;BME280;57146;48.140;16.304;2023-07-08T04:02:57;99876.97;;;15.29;70.00
69855;BME280;57146;48.140;16.304;2023-07-08T04:05:24;99876.34;;;15.32;69.71
69855;BME280;57146;48.140;16.304;2023-07-08T04:07:52;99873.53;;;15.29;69.99
69855;BME280;57146;48.140;16.304;2023-07-08T04:10:19;99869.63;;;15.35;69.86
69855;BME280;57146;48.140;16.304;2023-07-08T04:12:46;99880.72;;;15.37;70.05
69855;BME280;57146;48.140;16.304;2023-07-08T04:15:13;99884.44;;;15.45;69.40
69855;BME280;57146;48.140;16.304;2023-07-08T04:17:47;99884.09;;;15.46;69.59
69855;BME280;57146;48.140;16.304;2023-07-08T04:20:18;99883.16;;;15.51;69.31
69855;BME280;57146;48.140;16.304;2023-07-08T04:22:46;99878.00;;;15.54;68.58
69855;BME280;57146;48.140;16.304;2023-07-08T04:25:13;99883.78;;;15.56;68.82
69855;BME280;57146;48.140;16.304;2023-07-08T04:27:40;99881.91;;;15.66;68.22
69855;BME280;57146;48.140;16.304;2023-07-08T04:30:17;99883.75;;;15.74;68.25
69855;BME280;57146;48.140;16.304;2023-07-08T04:32:46;99883.53;;;15.79;68.46
69855;BME280;57146;48.140;16.304;2023-07-08T04:35:14;99878.84;;;15.85;68.93
69855;BME280;57146;48.140;16.304;2023-07-08T04:37:41;99876.47;;;15.92;68.62
69855;BME280;57146;48.140;16.304;2023-07-08T04:40:18;99877.09;;;15.97;68.69
69855;BME280;57146;48.140;16.304;2023-07-08T04:42:45;99872.34;;;16.03;67.60
69855;BME280;57146;48.140;16.304;2023-07-08T04:45:14;99880.28;;;16.12;67.00
69855;BME280;57146;48.140;16.304;2023-07-08T04:47:41;99878.97;;;16.18;66.79
69855;BME280;57146;48.140;16.304;2023-07-08T04:50:10;99882.38;;;16.27;67.69
69855;BME280;57146;48.140;16.304;2023-07-08T04:52:37;99883.41;;;16.35;67.57
69855;BME280;57146;48.140;16.304;2023-07-08T04:55:04;99878.38;;;16.42;67.13
69855;BME280;57146;48.140;16.304;2023-07-08T04:57:31;99882.84;;;16.50;66.90
69855;BME280;57146;48.140;16.304;2023-07-08T04:59:57;99882.31;;;16.57;66.17
69855;BME280;57146;48.140;16.304;2023-07-08T05:02:24;99884.78;;;16.62;66.01
69855;BME280;57146;48.140;16.304;2023-07-08T05:04:51;99881.28;;;16.70;66.25
69855;BME280;57146;48.140;16.304;2023-07-08T05:07:18;99893.31;;;16.76;66.20
69855;BME280;57146;48.140;16.304;2023-07-08T05:09:45;99878.69;;;16.82;66.35
69855;BME280;57146;48.140;16.304;2023-07-08T05:12:12;99879.28;;;16.88;65.09
69855;BME280;57146;48.140;16.304;2023-07-08T05:14:39;99876.88;;;16.95;64.65
69855;BME280;57146;48.140;16.304;2023-07-08T05:17:06;99886.22;;;17.01;63.73
69855;BME280;57146;48.140;16.304;2023-07-08T05:19:33;99879.91;;;17.06;63.70
69855;BME280;57146;48.140;16.304;2023-07-08T05:22:00;99875.94;;;17.12;63.86
69855;BME280;57146;48.140;16.304;2023-07-08T05:24:27;99876.94;;;17.19;63.54
69855;BME280;57146;48.140;16.304;2023-07-08T05:26:54;99880.16;;;17.25;62.86
69855;BME280;57146;48.140;16.304;2023-07-08T05:29:21;99884.94;;;17.32;63.56
69855;BME280;57146;48.140;16.304;2023-07-08T05:31:48;99875.66;;;17.38;63.75
69855;BME280;57146;48.140;16.304;2023-07-08T05:34:15;99874.66;;;17.42;63.16
69855;BME280;57146;48.140;16.304;2023-07-08T05:36:43;99870.34;;;17.50;63.07
69855;BME280;57146;48.140;16.304;2023-07-08T05:39:10;99871.38;;;17.58;62.59
69855;BME280;57146;48.140;16.304;2023-07-08T05:41:37;99879.34;;;17.70;61.78
69855;BME280;57146;48.140;16.304;2023-07-08T05:44:04;99876.63;;;17.79;62.12
69855;BME280;57146;48.140;16.304;2023-07-08T05:46:32;99874.41;;;17.93;60.68
69855;BME280;57146;48.140;16.304;2023-07-08T05:48:59;99870.97;;;18.05;61.07
69855;BME280;57146;48.140;16.304;2023-07-08T05:51:27;99873.59;;;18.17;60.20
69855;BME280;57146;48.140;16.304;2023-07-08T05:53:54;99868.56;;;18.28;60.03
69855;BME280;57146;48.140;16.304;2023-07-08T05:56:21;99871.13;;;18.36;58.85
69855;BME280;57146;48.140;16.304;2023-07-08T05:58:48;99872.22;;;18.48;60.11
69855;BME280;57146;48.140;16.304;2023-07-08T06:01:15;99871.50;;;18.63;60.05
69855;BME280;57146;48.140;16.304;2023-07-08T06:03:42;99875.69;;;18.76;59.60
69855;BME280;57146;48.140;16.304;2023-07-08T06:06:09;99872.28;;;18.92;60.62
69855;BME280;57146;48.140;16.304;2023-07-08T06:08:36;99870.78;;;19.06;59.06
69855;BME280;57146;48.140;16.304;2023-07-08T06:11:03;99864.53;;;19.14;56.51
69855;BME280;57146;48.140;16.304;2023-07-08T06:13:30;99861.00;;;19.26;56.29
69855;BME280;57146;48.140;16.304;2023-07-08T06:15:57;99870.50;;;19.40;56.67
69855;BME280;57146;48.140;16.304;2023-07-08T06:18:24;99872.81;;;19.57;55.42
69855;BME280;57146;48.140;16.304;2023-07-08T06:20:56;99873.53;;;19.70;56.04
69855;BME280;57146;48.140;16.304;2023-07-08T06:23:24;99873.94;;;19.88;57.38
69855;BME280;57146;48.140;16.304;2023-07-08T06:25:51;99876.94;;;20.02;57.08
69855;BME280;57146;48.140;16.304;2023-07-08T06:28:19;99878.44;;;20.19;54.45
69855;BME280;57146;48.140;16.304;2023-07-08T06:30:47;99872.63;;;20.32;53.85
69855;BME280;57146;48.140;16.304;2023-07-08T06:33:14;99875.59;;;20.47;54.02
69855;BME280;57146;48.140;16.304;2023-07-08T06:35:43;99871.84;;;20.67;54.64
69855;BME280;57146;48.140;16.304;2023-07-08T06:38:12;99873.66;;;20.83;53.29
69855;BME280;57146;48.140;16.304;2023-07-08T06:40:39;99869.97;;;20.91;52.64
69855;BME280;57146;48.140;16.304;2023-07-08T06:43:06;99864.22;;;20.89;49.84
69855;BME280;57146;48.140;16.304;2023-07-08T06:45:43;99865.00;;;20.89;50.29
69855;BME280;57146;48.140;16.304;2023-07-08T06:48:10;99860.03;;;21.11;52.67
69855;BME280;57146;48.140;16.304;2023-07-08T06:50:38;99856.50;;;21.29;49.19
69855;BME280;57146;48.140;16.304;2023-07-08T06:53:05;99854.03;;;21.40;48.62
69855;BME280;57146;48.140;16.304;2023-07-08T06:55:31;99858.81;;;21.50;51.41
69855;BME280;57146;48.140;16.304;2023-07-08T06:57:58;99861.97;;;21.56;48.39
69855;BME280;57146;48.140;16.304;2023-07-08T07:00:25;99861.34;;;21.66;48.92
69855;BME280;57146;48.140;16.304;2023-07-08T07:02:52;99847.75;;;21.79;49.80
69855;BME280;57146;48.140;16.304;2023-07-08T07:05:19;99841.69;;;21.82;48.29
69855;BME280;57146;48.140;16.304;2023-07-08T07:07:49;99843.63;;;21.85;48.75
69855;BME280;57146;48.140;16.304;2023-07-08T07:10:16;99842.22;;;21.94;49.02
69855;BME280;57146;48.140;16.304;2023-07-08T07:12:43;99832.78;;;22.04;48.33
69855;BME280;57146;48.140;16.304;2023-07-08T07:15:10;99842.53;;;22.16;50.62
69855;BME280;57146;48.140;16.304;2023-07-08T07:17:37;99843.06;;;22.25;49.16
69855;BME280;57146;48.140;16.304;2023-07-08T07:20:04;99845.69;;;22.21;49.18
69855;BME280;57146;48.140;16.304;2023-07-08T07:22:32;99843.13;;;22.32;48.93
69855;BME280;57146;48.140;16.304;2023-07-08T07:25:00;99837.09;;;22.39;48.40
69855;BME280;57146;48.140;16.304;2023-07-08T07:27:27;99834.91;;;22.52;48.56
69855;BME280;57146;48.140;16.304;2023-07-08T07:29:54;99840.41;;;22.62;48.04
69855;BME280;57146;48.140;16.304;2023-07-08T07:32:23;99851.22;;;22.69;47.34
69855;BME280;57146;48.140;16.304;2023-07-08T07:34:51;99855.13;;;22.76;47.25
69855;BME280;57146;48.140;16.304;2023-07-08T07:37:20;99853.69;;;22.85;47.36
69855;BME280;57146;48.140;16.304;2023-07-08T07:39:47;99846.06;;;22.91;48.62
69855;BME280;57146;48.140;16.304;2023-07-08T07:42:15;99841.25;;;23.04;46.82
69855;BME280;57146;48.140;16.304;2023-07-08T07:44:43;99839.41;;;23.11;47.29
69855;BME280;57146;48.140;16.304;2023-07-08T07:47:10;99847.97;;;23.24;45.87
69855;BME280;57146;48.140;16.304;2023-07-08T07:50:03;99839.22;;;23.34;46.46
69855;BME280;57146;48.140;16.304;2023-07-08T07:52:30;99845.81;;;23.44;47.64
69855;BME280;57146;48.140;16.304;2023-07-08T07:54:57;99852.38;;;23.50;46.68
69855;BME280;57146;48.140;16.304;2023-07-08T07:57:25;99846.31;;;23.57;46.68
69855;BME280;57146;48.140;16.304;2023-07-08T07:59:52;99846.75;;;23.66;46.87
69855;BME280;57146;48.140;16.304;2023-07-08T08:02:19;99850.66;;;23.76;45.75
69855;BME280;57146;48.140;16.304;2023-07-08T08:04:46;99855.34;;;23.86;45.10
69855;BME280;57146;48.140;16.304;2023-07-08T08:07:13;99848.06;;;23.90;45.93
69855;BME280;57146;48.140;16.304;2023-07-08T08:09:39;99854.25;;;23.98;47.30
69855;BME280;57146;48.140;16.304;2023-07-08T08:12:09;99840.84;;;24.01;46.07
69855;BME280;57146;48.140;16.304;2023-07-08T08:14:37;99844.38;;;24.16;48.40
69855;BME280;57146;48.140;16.304;2023-07-08T08:17:04;99836.38;;;24.27;47.32
69855;BME280;57146;48.140;16.304;2023-07-08T08:19:31;99845.66;;;24.40;45.50
69855;BME280;57146;48.140;16.304;2023-07-08T08:21:59;99841.44;;;24.46;45.72
69855;BME280;57146;48.140;16.304;2023-07-08T08:24:26;99839.56;;;24.54;47.92
69855;BME280;57146;48.140;16.304;2023-07-08T08:26:54;99833.81;;;24.63;47.36
69855;BME280;57146;48.140;16.304;2023-07-08T08:29:21;99834.59;;;24.67;46.19
69855;BME280;57146;48.140;16.304;2023-07-08T08:31:48;99837.31;;;24.77;47.65
69855;BME280;57146;48.140;16.304;2023-07-08T08:34:15;99833.88;;;24.80;45.39
69855;BME280;57146;48.140;16.304;2023-07-08T08:36:42;99833.47;;;24.85;44.70
69855;BME280;57146;48.140;16.304;2023-07-08T08:39:09;99839.63;;;24.93;44.81
69855;BME280;57146;48.140;16.304;2023-07-08T08:41:38;99841.97;;;25.05;43.40
69855;BME280;57146;48.140;16.304;2023-07-08T08:44:05;99835.88;;;25.16;45.55
69855;BME280;57146;48.140;16.304;2023-07-08T08:51:40;99834.28;;;25.47;44.27
69855;BME280;57146;48.140;16.304;2023-07-08T08:54:08;99830.06;;;25.49;44.47
69855;BME280;57146;48.140;16.304;2023-07-08T08:56:43;99821.97;;;25.56;44.93
69855;BME280;57146;48.140;16.304;2023-07-08T09:01:53;99811.19;;;25.60;45.47
69855;BME280;57146;48.140;16.304;2023-07-08T09:04:27;99806.94;;;25.70;44.25
69855;BME280;57146;48.140;16.304;2023-07-08T09:07:03;99805.41;;;25.83;44.64
69855;BME280;57146;48.140;16.304;2023-07-08T09:09:38;99804.19;;;25.95;42.50
69855;BME280;57146;48.140;16.304;2023-07-08T09:12:16;99801.09;;;25.96;43.12
69855;BME280;57146;48.140;16.304;2023-07-08T09:14:45;99797.59;;;26.07;42.74
69855;BME280;57146;48.140;16.304;2023-07-08T09:22:46;99795.66;;;26.11;41.99
69855;BME280;57146;48.140;16.304;2023-07-08T09:25:32;99799.13;;;26.11;42.57
69855;BME280;57146;48.140;16.304;2023-07-08T09:27:59;99797.53;;;26.21;41.38
69855;BME280;57146;48.140;16.304;2023-07-08T09:30:27;99798.69;;;26.27;41.11
69855;BME280;57146;48.140;16.304;2023-07-08T09:32:54;99791.75;;;26.30;40.40
69855;BME280;57146;48.140;16.304;2023-07-08T09:35:38;99789.41;;;26.32;41.30
69855;BME280;57146;48.140;16.304;2023-07-08T09:38:15;99795.91;;;26.41;40.94
69855;BME280;57146;48.140;16.304;2023-07-08T09:40:51;99788.53;;;26.56;40.65
69855;BME280;57146;48.140;16.304;2023-07-08T09:43:25;99781.56;;;26.59;39.44
69855;BME280;57146;48.140;16.304;2023-07-08T09:45:58;99774.25;;;26.56;40.27
69855;BME280;57146;48.140;16.304;2023-07-08T09:48:27;99775.75;;;26.60;39.92
69855;BME280;57146;48.140;16.304;2023-07-08T09:50:57;99778.06;;;26.65;38.52
69855;BME280;57146;48.140;16.304;2023-07-08T09:53:26;99768.38;;;26.68;38.66
69855;BME280;57146;48.140;16.304;2023-07-08T09:55:56;99757.19;;;26.69;37.71
69855;BME280;57146;48.140;16.304;2023-07-08T09:58:34;99759.47;;;26.74;37.19
69855;BME280;57146;48.140;16.304;2023-07-08T10:01:13;99757.47;;;26.82;37.65
69855;BME280;57146;48.140;16.304;2023-07-08T10:03:40;99757.06;;;26.87;37.44
69855;BME280;57146;48.140;16.304;2023-07-08T10:06:25;99762.03;;;26.92;37.58
69855;BME280;57146;48.140;16.304;2023-07-08T10:08:59;99767.78;;;26.98;36.92
69855;BME280;57146;48.140;16.304;2023-07-08T10:11:31;99769.28;;;27.03;35.95
69855;BME280;57146;48.140;16.304;2023-07-08T10:16:46;99755.78;;;27.03;36.72
69855;BME280;57146;48.140;16.304;2023-07-08T10:19:17;99755.44;;;27.01;35.93
69855;BME280;57146;48.140;16.304;2023-07-08T10:22:08;99747.31;;;27.01;36.17
69855;BME280;57146;48.140;16.304;2023-07-08T10:35:20;99742.69;;;27.01;35.87
69855;BME280;57146;48.140;16.304;2023-07-08T10:40:58;99741.47;;;27.06;35.09
69855;BME280;57146;48.140;16.304;2023-07-08T10:46:43;99739.88;;;27.15;35.69
69855;BME280;57146;48.140;16.304;2023-07-08T10:55:02;99738.59;;;27.27;35.44
69855;BME280;57146;48.140;16.304;2023-07-08T11:00:58;99727.78;;;27.27;34.59
69855;BME280;57146;48.140;16.304;2023-07-08T11:07:03;99720.78;;;27.33;36.42
69855;BME280;57146;48.140;16.304;2023-07-08T11:09:44;99724.59;;;27.39;35.98
69855;BME280;57146;48.140;16.304;2023-07-08T11:12:26;99722.63;;;27.43;34.41
69855;BME280;57146;48.140;16.304;2023-07-08T11:18:05;99720.66;;;27.44;32.94
69855;BME280;57146;48.140;16.304;2023-07-08T11:23:08;99716.38;;;27.50;32.39
69855;BME280;57146;48.140;16.304;2023-07-08T11:25:41;99716.72;;;27.52;30.79
69855;BME280;57146;48.140;16.304;2023-07-08T11:28:14;99720.13;;;27.56;30.31
69855;BME280;57146;48.140;16.304;2023-07-08T11:30:47;99715.78;;;27.66;30.18
69855;BME280;57146;48.140;16.304;2023-07-08T11:33:17;99726.53;;;27.73;29.40
69855;BME280;57146;48.140;16.304;2023-07-08T11:35:49;99723.41;;;27.75;29.51
69855;BME280;57146;48.140;16.304;2023-07-08T11:38:20;99711.47;;;27.72;31.66
69855;BME280;57146;48.140;16.304;2023-07-08T11:40:53;99711.13;;;27.66;30.25
69855;BME280;57146;48.140;16.304;2023-07-08T11:43:23;99715.78;;;27.66;30.85
69855;BME280;57146;48.140;16.304;2023-07-08T11:45:55;99720.06;;;27.63;30.42
69855;BME280;57146;48.140;16.304;2023-07-08T11:48:30;99719.75;;;27.58;30.04
69855;BME280;57146;48.140;16.304;2023-07-08T11:51:04;99708.19;;;27.57;30.54
69855;BME280;57146;48.140;16.304;2023-07-08T11:53:38;99707.38;;;27.57;30.76
69855;BME280;57146;48.140;16.304;2023-07-08T11:59:05;99706.50;;;27.67;30.67
69855;BME280;57146;48.140;16.304;2023-07-08T12:02:15;99707.66;;;27.66;30.02
69855;BME280;57146;48.140;16.304;2023-07-08T12:07:46;99682.81;;;27.75;30.58
69855;BME280;57146;48.140;16.304;2023-07-08T12:10:22;99682.81;;;27.78;31.35
69855;BME280;57146;48.140;16.304;2023-07-08T12:12:53;99681.25;;;27.81;31.25
69855;BME280;57146;48.140;16.304;2023-07-08T12:15:28;99681.91;;;27.88;31.26
69855;BME280;57146;48.140;16.304;2023-07-08T12:18:02;99693.41;;;27.96;30.78
69855;BME280;57146;48.140;16.304;2023-07-08T12:20:35;99692.25;;;27.97;30.66
69855;BME280;57146;48.140;16.304;2023-07-08T12:23:11;99689.44;;;28.04;31.32
69855;BME280;57146;48.140;16.304;2023-07-08T12:25:39;99684.88;;;27.98;30.46
69855;BME280;57146;48.140;16.304;2023-07-08T12:28:06;99670.66;;;27.93;29.76
69855;BME280;57146;48.140;16.304;2023-07-08T12:30:34;99671.38;;;27.98;31.49
69855;BME280;57146;48.140;16.304;2023-07-08T12:33:01;99678.66;;;28.01;32.03
69855;BME280;57146;48.140;16.304;2023-07-08T12:35:31;99672.03;;;28.05;32.20
69855;BME280;57146;48.140;16.304;2023-07-08T12:38:01;99680.47;;;28.11;31.74
69855;BME280;57146;48.140;16.304;2023-07-08T12:40:30;99683.88;;;28.15;31.27
69855;BME280;57146;48.140;16.304;2023-07-08T12:42:58;99680.09;;;28.09;31.07
69855;BME280;57146;48.140;16.304;2023-07-08T12:45:26;99669.75;;;28.04;31.94
69855;BME280;57146;48.140;16.304;2023-07-08T12:47:54;99672.06;;;28.02;32.01
69855;BME280;57146;48.140;16.304;2023-07-08T12:50:22;99671.16;;;28.12;32.32
69855;BME280;57146;48.140;16.304;2023-07-08T12:52:50;99657.56;;;28.15;31.97
69855;BME280;57146;48.140;16.304;2023-07-08T12:55:17;99656.88;;;28.11;32.39
69855;BME280;57146;48.140;16.304;2023-07-08T12:57:49;99650.94;;;28.20;32.62
69855;BME280;57146;48.140;16.304;2023-07-08T13:00:38;99659.53;;;28.15;32.23
69855;BME280;57146;48.140;16.304;2023-07-08T13:03:19;99667.44;;;28.02;32.83
69855;BME280;57146;48.140;16.304;2023-07-08T13:05:48;99657.22;;;27.86;32.80
69855;BME280;57146;48.140;16.304;2023-07-08T13:08:18;99653.47;;;27.77;33.09
69855;BME280;57146;48.140;16.304;2023-07-08T13:10:47;99659.59;;;27.81;33.58
69855;BME280;57146;48.140;16.304;2023-07-08T13:13:22;99666.44;;;27.89;34.42
69855;BME280;57146;48.140;16.304;2023-07-08T13:15:51;99656.75;;;27.91;33.01
69855;BME280;57146;48.140;16.304;2023-07-08T13:18:36;99661.91;;;27.82;33.20
69855;BME280;57146;48.140;16.304;2023-07-08T13:21:05;99652.25;;;27.81;32.60
69855;BME280;57146;48.140;16.304;2023-07-08T13:23:34;99659.94;;;27.86;32.97
69855;BME280;57146;48.140;16.304;2023-07-08T13:26:12;99659.16;;;27.86;32.29
69855;BME280;57146;48.140;16.304;2023-07-08T13:28:40;99639.84;;;27.84;33.28
69855;BME280;57146;48.140;16.304;2023-07-08T13:31:19;99637.88;;;27.88;33.32
69855;BME280;57146;48.140;16.304;2023-07-08T13:33:53;99645.13;;;27.95;33.18
69855;BME280;57146;48.140;16.304;2023-07-08T13:36:32;99639.25;;;28.00;32.96
69855;BME280;57146;48.140;16.304;2023-07-08T13:39:05;99647.72;;;28.02;33.22
69855;BME280;57146;48.140;16.304;2023-07-08T13:41:33;99647.31;;;28.03;33.14
69855;BME280;57146;48.140;16.304;2023-07-08T13:44:05;99644.91;;;28.09;33.30
69855;BME280;57146;48.140;16.304;2023-07-08T13:46:44;99646.09;;;28.08;32.92
69855;BME280;57146;48.140;16.304;2023-07-08T13:49:20;99652.66;;;28.07;32.37
69855;BME280;57146;48.140;16.304;2023-07-08T13:51:49;99634.91;;;28.06;32.67
69855;BME280;57146;48.140;16.304;2023-07-08T13:54:23;99633.66;;;28.10;32.76
69855;BME280;57146;48.140;16.304;2023-07-08T13:56:51;99638.84;;;28.28;32.71
69855;BME280;57146;48.140;16.304;2023-07-08T13:59:22;99634.94;;;28.29;32.61
69855;BME280;57146;48.140;16.304;2023-07-08T14:01:55;99636.53;;;28.27;32.56
69855;BME280;57146;48.140;16.304;2023-07-08T14:04:32;99632.56;;;28.31;33.45
69855;BME280;57146;48.140;16.304;2023-07-08T14:07:00;99642.97;;;28.36;34.25